Time;durP1;ratioP1;P1;durP2;ratioP2;P2;SDS_P1;SDS_P2;PMS_P1;PMS_P2;Temp;Humidity;BMP_temperature;BMP_pressure;BME280_temperature;BME280_humidity;BME280_pressure;Samples;Min_cycle;Max_cycle;Signal;HPM_P1;HPM_P2
2021/05/26 00:00:21;;;;;;;9.07;4.65;;;10.20;99.90;;;;;;6121841;23;20010;-83
2021/05/26 00:02:48;;;;;;;8.48;4.70;;;10.20;99.90;;;;;;6092970;23;20027;-82
2021/05/26 00:05:15;;;;;;;14.02;5.28;;;10.20;99.90;;;;;;6094348;23;20052;-82
2021/05/26 00:07:42;;;;;;;9.30;5.93;;;10.20;99.90;;;;;;6092732;23;20022;-82
2021/05/26 00:10:09;;;;;;;9.80;4.95;;;10.20;99.90;;;;;;6094596;23;20025;-83
2021/05/26 00:12:36;;;;;;;12.00;5.68;;;10.10;99.90;;;;;;6093445;23;20037;-82
2021/05/26 00:15:05;;;;;;;10.95;4.72;;;10.10;99.90;;;;;;6094471;23;22465;-82
2021/05/26 00:17:32;;;;;;;10.85;5.38;;;10.10;99.90;;;;;;6094052;23;20020;-83
2021/05/26 00:20:00;;;;;;;9.80;4.85;;;10.00;99.90;;;;;;6093142;23;20029;-83
2021/05/26 00:22:27;;;;;;;17.13;5.28;;;10.00;99.90;;;;;;6092110;23;20030;-82
2021/05/26 00:24:54;;;;;;;13.88;5.85;;;10.00;99.90;;;;;;6094727;23;20085;-83
2021/05/26 00:27:21;;;;;;;8.00;5.55;;;10.00;99.90;;;;;;6095534;23;20045;-82
2021/05/26 00:29:48;;;;;;;7.65;5.45;;;10.00;99.90;;;;;;6093678;23;20026;-82
2021/05/26 00:32:15;;;;;;;8.07;5.68;;;10.00;99.90;;;;;;6090659;23;20029;-82
2021/05/26 00:34:42;;;;;;;10.13;5.70;;;10.00;99.90;;;;;;6094362;23;20104;-83
2021/05/26 00:37:09;;;;;;;11.20;6.50;;;10.00;99.90;;;;;;6094564;23;20045;-82
2021/05/26 00:39:35;;;;;;;10.60;6.72;;;10.10;99.90;;;;;;6092819;23;20022;-82
2021/05/26 00:42:02;;;;;;;10.82;7.28;;;10.00;99.90;;;;;;6095447;23;20034;-83
2021/05/26 00:44:29;;;;;;;12.98;7.38;;;10.00;99.90;;;;;;6093985;23;20006;-82
2021/05/26 00:46:56;;;;;;;15.88;8.85;;;10.00;99.90;;;;;;6093995;23;20038;-83
2021/05/26 00:49:23;;;;;;;21.95;9.90;;;10.00;99.90;;;;;;6093969;23;20077;-82
2021/05/26 00:51:50;;;;;;;20.95;9.98;;;10.00;99.90;;;;;;6094911;23;20116;-83
2021/05/26 00:54:16;;;;;;;21.83;11.20;;;9.90;99.90;;;;;;6093941;23;20022;-83
2021/05/26 00:56:43;;;;;;;28.90;13.75;;;9.80;99.90;;;;;;6092419;23;20124;-83
2021/05/26 00:59:10;;;;;;;26.48;14.10;;;9.80;99.90;;;;;;6094807;23;20057;-83
2021/05/26 01:01:37;;;;;;;27.88;14.95;;;9.70;99.90;;;;;;6094818;23;20096;-83
2021/05/26 01:04:04;;;;;;;27.58;15.45;;;9.60;99.90;;;;;;6078691;23;20081;-82
2021/05/26 01:06:31;;;;;;;29.80;16.50;;;9.50;99.90;;;;;;6094026;23;20022;-82
2021/05/26 01:08:58;;;;;;;28.52;15.40;;;9.50;99.90;;;;;;6093891;23;20032;-83
2021/05/26 01:11:25;;;;;;;37.38;18.88;;;9.40;99.90;;;;;;6096026;23;20049;-83
2021/05/26 01:13:52;;;;;;;38.63;16.85;;;9.30;99.90;;;;;;6093092;23;20080;-82
2021/05/26 01:16:19;;;;;;;29.77;16.45;;;9.30;99.90;;;;;;6093975;23;20447;-82
2021/05/26 01:18:45;;;;;;;31.60;17.95;;;9.20;99.90;;;;;;6093405;23;20096;-82
2021/05/26 01:21:15;;;;;;;35.25;18.60;;;9.10;99.90;;;;;;6096517;23;20438;-82
2021/05/26 01:23:42;;;;;;;32.80;18.15;;;9.10;99.90;;;;;;6095254;23;20450;-82
2021/05/26 01:26:09;;;;;;;38.13;19.05;;;9.00;99.90;;;;;;6093396;23;21083;-83
2021/05/26 01:28:37;;;;;;;39.53;18.73;;;9.00;99.90;;;;;;6095838;23;20026;-83
2021/05/26 01:31:04;;;;;;;41.20;18.00;;;9.00;99.90;;;;;;6095685;23;20029;-83
2021/05/26 01:33:31;;;;;;;39.15;18.73;;;8.90;99.90;;;;;;6120130;23;20068;-83
2021/05/26 01:35:58;;;;;;;42.10;18.25;;;8.90;99.90;;;;;;6095107;23;20029;-82
2021/05/26 01:38:25;;;;;;;41.47;18.70;;;8.80;99.90;;;;;;6096117;23;20018;-82
2021/05/26 01:40:57;;;;;;;35.15;17.52;;;8.80;99.90;;;;;;6094569;23;20017;-83
2021/05/26 01:43:26;;;;;;;39.20;19.40;;;8.80;99.90;;;;;;6094255;23;20025;-82
2021/05/26 01:45:53;;;;;;;33.50;15.80;;;8.70;99.90;;;;;;6095560;23;20539;-82
2021/05/26 01:48:20;;;;;;;35.47;16.33;;;8.60;99.90;;;;;;6095390;23;20080;-83
2021/05/26 01:50:47;;;;;;;32.20;15.65;;;8.60;99.90;;;;;;6014233;23;20407;-83
2021/05/26 01:53:13;;;;;;;35.83;16.83;;;8.60;99.90;;;;;;6094141;23;20033;-83
2021/05/26 01:55:40;;;;;;;29.83;15.82;;;8.60;99.90;;;;;;6082555;23;20022;-83
2021/05/26 01:58:08;;;;;;;40.72;16.73;;;8.50;99.90;;;;;;6094642;23;20077;-83
2021/05/26 02:00:35;;;;;;;31.05;15.50;;;8.50;99.90;;;;;;6095099;23;20032;-83
2021/05/26 02:03:02;;;;;;;38.90;15.73;;;8.50;99.90;;;;;;6095618;23;20037;-83
2021/05/26 02:05:29;;;;;;;29.98;15.20;;;8.40;99.90;;;;;;6095752;23;20082;-83
2021/05/26 02:07:56;;;;;;;38.42;15.48;;;8.40;99.90;;;;;;6094649;23;20101;-83
2021/05/26 02:13:07;;;;;;;29.90;14.13;;;8.30;99.90;;;;;;6121825;23;20065;-82
2021/05/26 02:15:34;;;;;;;39.25;14.90;;;8.30;99.90;;;;;;6097631;23;21130;-83
2021/05/26 02:18:01;;;;;;;33.67;14.65;;;8.30;99.90;;;;;;6099821;23;20029;-82
2021/05/26 02:20:28;;;;;;;35.22;14.15;;;8.30;99.90;;;;;;6104028;23;20041;-83
2021/05/26 02:22:55;;;;;;;27.23;13.68;;;8.30;99.90;;;;;;6095127;23;20028;-82
2021/05/26 02:25:22;;;;;;;35.20;12.90;;;8.30;99.90;;;;;;6095263;23;20116;-83
2021/05/26 02:27:48;;;;;;;26.58;12.57;;;8.30;99.90;;;;;;6093070;23;20101;-82
2021/05/26 02:30:16;;;;;;;22.77;11.95;;;8.30;99.90;;;;;;6097352;23;20033;-82
2021/05/26 02:32:43;;;;;;;29.23;11.75;;;8.30;99.90;;;;;;6095778;23;20026;-82
2021/05/26 02:35:11;;;;;;;24.52;10.65;;;8.30;99.90;;;;;;6121702;23;20078;-82
2021/05/26 02:37:39;;;;;;;19.77;9.63;;;8.30;99.90;;;;;;6094861;23;20117;-82
2021/05/26 02:40:07;;;;;;;25.80;9.55;;;8.40;99.90;;;;;;6097746;23;20048;-84
2021/05/26 02:42:34;;;;;;;20.90;8.73;;;8.40;99.90;;;;;;6088773;23;20338;-82
2021/05/26 02:45:01;;;;;;;18.65;8.57;;;8.40;99.90;;;;;;6090857;23;20022;-82
2021/05/26 02:47:28;;;;;;;11.40;6.80;;;8.40;99.90;;;;;;6089904;23;20022;-82
2021/05/26 02:49:55;;;;;;;16.98;7.80;;;8.40;99.90;;;;;;6090994;23;20019;-82
2021/05/26 02:52:22;;;;;;;14.07;7.10;;;8.40;99.90;;;;;;6088699;23;20403;-83
2021/05/26 02:54:49;;;;;;;10.40;6.57;;;8.50;99.90;;;;;;6066569;23;20022;-83
2021/05/26 02:57:15;;;;;;;14.90;7.13;;;8.40;99.90;;;;;;6090759;23;20042;-83
2021/05/26 02:59:42;;;;;;;15.07;6.53;;;8.40;99.90;;;;;;6090501;23;20037;-84
2021/05/26 03:02:09;;;;;;;15.18;6.63;;;8.40;99.90;;;;;;6090780;23;21011;-83
2021/05/26 03:04:36;;;;;;;8.57;5.95;;;8.50;99.90;;;;;;6089581;23;20443;-83
2021/05/26 03:07:03;;;;;;;8.18;5.40;;;8.50;99.90;;;;;;6090604;23;20098;-83
2021/05/26 03:09:30;;;;;;;14.43;6.13;;;8.50;99.90;;;;;;6089073;23;20498;-83
2021/05/26 03:11:57;;;;;;;10.85;5.85;;;8.50;99.90;;;;;;6090413;23;20417;-83
2021/05/26 03:14:23;;;;;;;11.85;5.50;;;8.50;99.90;;;;;;6089659;23;20518;-83
2021/05/26 03:16:50;;;;;;;14.75;5.47;;;8.60;99.90;;;;;;6091998;23;20215;-83
2021/05/26 03:19:17;;;;;;;13.43;5.28;;;8.60;99.90;;;;;;6088271;23;20312;-83
2021/05/26 03:21:44;;;;;;;8.23;4.53;;;8.60;99.90;;;;;;6094006;23;20194;-83
2021/05/26 03:24:12;;;;;;;7.88;5.00;;;8.70;99.90;;;;;;6090900;23;20093;-83
2021/05/26 03:26:39;;;;;;;6.85;4.72;;;8.70;99.90;;;;;;6091056;23;20032;-83
2021/05/26 03:29:06;;;;;;;9.48;5.20;;;8.80;99.90;;;;;;6089353;23;20029;-83
2021/05/26 03:31:32;;;;;;;8.85;4.18;;;8.80;99.90;;;;;;6090142;23;20102;-83
2021/05/26 03:33:59;;;;;;;7.03;4.22;;;8.80;99.90;;;;;;6090063;23;20018;-83
2021/05/26 03:36:26;;;;;;;8.43;4.63;;;8.80;99.90;;;;;;6089940;23;20045;-83
2021/05/26 03:38:53;;;;;;;10.43;4.72;;;8.90;99.90;;;;;;6090915;23;20447;-83
2021/05/26 03:41:20;;;;;;;6.60;4.13;;;8.90;99.90;;;;;;6092034;23;20010;-83
2021/05/26 03:43:46;;;;;;;6.53;3.65;;;9.00;99.90;;;;;;6095308;23;20510;-83
2021/05/26 03:46:13;;;;;;;10.48;4.35;;;9.00;99.90;;;;;;6093166;23;20025;-82
2021/05/26 03:48:40;;;;;;;7.05;3.92;;;9.00;99.90;;;;;;6118551;23;20026;-83
2021/05/26 03:51:07;;;;;;;7.90;3.78;;;9.10;99.90;;;;;;6096381;23;20010;-83
2021/05/26 03:53:34;;;;;;;7.60;4.20;;;9.10;99.90;;;;;;6094946;23;20453;-84
2021/05/26 03:56:01;;;;;;;5.72;3.70;;;9.10;99.90;;;;;;6095324;23;20025;-82
2021/05/26 03:58:27;;;;;;;5.13;3.20;;;9.10;99.90;;;;;;6093770;23;20026;-83
2021/05/26 04:00:54;;;;;;;6.72;3.47;;;9.20;99.90;;;;;;6094650;23;20064;-83
2021/05/26 04:03:21;;;;;;;6.65;2.80;;;9.20;99.90;;;;;;6094052;23;20512;-82
2021/05/26 04:05:48;;;;;;;6.32;3.33;;;9.20;99.90;;;;;;6095699;23;20135;-83
2021/05/26 04:08:15;;;;;;;11.90;3.33;;;9.20;99.90;;;;;;6094340;23;20033;-82
2021/05/26 04:10:41;;;;;;;10.85;4.10;;;9.20;99.90;;;;;;6094933;23;20045;-83
2021/05/26 04:13:08;;;;;;;5.50;3.08;;;9.20;99.90;;;;;;6118516;23;20028;-82
2021/05/26 04:15:35;;;;;;;7.05;3.80;;;9.30;99.90;;;;;;6094347;23;20032;-82
2021/05/26 04:18:06;;;;;;;5.00;4.13;;;9.30;99.90;;;;;;6091689;23;20331;-83
2021/05/26 04:20:33;;;;;;;11.68;4.30;;;9.40;99.90;;;;;;6069555;23;20112;-83
2021/05/26 04:23:00;;;;;;;10.05;4.30;;;9.40;99.90;;;;;;6095493;23;20030;-83
2021/05/26 04:25:27;;;;;;;7.00;4.55;;;9.40;99.90;;;;;;6091132;23;20089;-83
2021/05/26 04:27:54;;;;;;;11.65;4.93;;;9.40;99.90;;;;;;6118918;23;20034;-82
2021/05/26 04:30:21;;;;;;;7.53;5.32;;;9.50;99.90;;;;;;6089959;23;20441;-83
2021/05/26 04:32:48;;;;;;;12.18;4.88;;;9.50;99.90;;;;;;6094075;23;20041;-83
2021/05/26 04:35:15;;;;;;;11.35;5.90;;;9.60;99.90;;;;;;6093257;23;20398;-83
2021/05/26 04:37:42;;;;;;;12.60;5.88;;;9.60;99.90;;;;;;6093397;23;20101;-83
2021/05/26 04:40:09;;;;;;;15.23;5.82;;;9.60;99.90;;;;;;6094558;23;20042;-82
2021/05/26 04:42:36;;;;;;;10.68;5.43;;;9.60;99.90;;;;;;6094737;23;20520;-83
2021/05/26 04:45:04;;;;;;;16.83;7.93;;;9.60;99.90;;;;;;6094827;23;20018;-82
2021/05/26 04:47:31;;;;;;;17.75;7.47;;;9.60;99.90;;;;;;6094958;23;20045;-82
2021/05/26 04:49:57;;;;;;;10.98;6.88;;;9.60;99.90;;;;;;6096295;23;20469;-82
2021/05/26 04:52:24;;;;;;;19.35;8.35;;;9.50;99.90;;;;;;6097082;23;20050;-82
2021/05/26 04:54:51;;;;;;;15.52;7.47;;;9.50;99.90;;;;;;6097052;23;20076;-82
2021/05/26 04:57:18;;;;;;;14.82;7.00;;;9.50;99.90;;;;;;6094325;23;20046;-82
2021/05/26 04:59:44;;;;;;;17.23;8.48;;;9.40;99.90;;;;;;6094270;23;20096;-83
2021/05/26 05:02:11;;;;;;;20.73;8.50;;;9.40;99.90;;;;;;6082528;23;20085;-84
2021/05/26 05:04:38;;;;;;;16.90;7.88;;;9.50;99.90;;;;;;6095137;23;20462;-84
2021/05/26 05:07:04;;;;;;;19.55;7.70;;;9.50;99.90;;;;;;6095568;23;20022;-84
2021/05/26 05:09:31;;;;;;;20.55;8.13;;;9.60;99.90;;;;;;6093595;23;20056;-82
2021/05/26 05:11:58;;;;;;;19.60;7.60;;;9.70;99.90;;;;;;6096502;23;20765;-82
2021/05/26 05:14:25;;;;;;;17.52;8.18;;;9.80;99.90;;;;;;6094314;23;20033;-83
2021/05/26 05:16:51;;;;;;;18.00;8.98;;;10.00;99.90;;;;;;6096153;23;20332;-83
2021/05/26 05:19:19;;;;;;;16.63;7.47;;;10.20;99.90;;;;;;6094422;23;20022;-83
2021/05/26 05:21:46;;;;;;;16.23;7.60;;;10.40;99.90;;;;;;6121249;23;20148;-83
2021/05/26 05:24:12;;;;;;;20.67;8.25;;;10.60;99.90;;;;;;6095207;23;20026;-83
2021/05/26 05:26:39;;;;;;;18.00;7.93;;;10.80;99.90;;;;;;6096968;23;20026;-83
2021/05/26 05:29:06;;;;;;;11.57;7.00;;;10.90;99.90;;;;;;6101262;23;20074;-83
2021/05/26 05:31:33;;;;;;;12.88;6.45;;;11.00;99.90;;;;;;6100131;23;20908;-83
2021/05/26 05:34:00;;;;;;;18.00;6.60;;;11.10;99.90;;;;;;6096473;23;20394;-82
2021/05/26 05:36:26;;;;;;;23.85;7.75;;;11.20;99.90;;;;;;6097500;23;20022;-82
2021/05/26 05:38:53;;;;;;;19.25;8.38;;;11.20;99.90;;;;;;6093906;23;20089;-82
2021/05/26 05:41:20;;;;;;;14.35;7.63;;;11.30;99.90;;;;;;6094640;23;20061;-83
2021/05/26 05:43:47;;;;;;;21.48;6.72;;;11.30;99.90;;;;;;6089247;23;20045;-82
2021/05/26 05:46:14;;;;;;;17.30;6.85;;;11.30;99.90;;;;;;6095750;23;20022;-82
2021/05/26 05:48:40;;;;;;;18.73;7.32;;;11.30;99.90;;;;;;6088306;23;20018;-83
2021/05/26 05:51:07;;;;;;;20.15;7.47;;;11.20;99.90;;;;;;6097903;23;20014;-83
2021/05/26 05:53:34;;;;;;;22.58;7.75;;;11.20;99.90;;;;;;6093556;23;20041;-83
2021/05/26 05:56:02;;;;;;;18.15;7.97;;;11.30;99.90;;;;;;6090510;23;20021;-82
2021/05/26 05:58:30;;;;;;;16.08;7.07;;;11.30;99.90;;;;;;6117685;23;20029;-82
2021/05/26 06:00:56;;;;;;;22.17;8.55;;;11.40;99.90;;;;;;6096371;23;20080;-83
2021/05/26 06:03:25;;;;;;;21.20;8.80;;;11.40;99.90;;;;;;6095161;23;20616;-82
2021/05/26 06:05:51;;;;;;;26.02;10.50;;;11.50;99.90;;;;;;6094997;23;20073;-83
2021/05/26 06:08:19;;;;;;;19.42;9.23;;;11.70;99.90;;;;;;6094847;23;20033;-81
2021/05/26 06:10:49;;;;;;;20.48;9.13;;;11.80;99.90;;;;;;6081438;23;20390;-82
2021/05/26 06:13:16;;;;;;;22.58;9.18;;;11.90;99.90;;;;;;6095477;23;20358;-82
2021/05/26 06:15:42;;;;;;;19.17;9.75;;;11.90;99.90;;;;;;6097251;23;20017;-82
2021/05/26 06:18:11;;;;;;;20.48;9.52;;;12.00;99.90;;;;;;6081351;23;20065;-82
2021/05/26 06:20:38;;;;;;;22.33;9.90;;;12.00;99.90;;;;;;6096232;23;20018;-82
2021/05/26 06:23:05;;;;;;;19.90;10.25;;;12.20;99.90;;;;;;6095605;23;20021;-82
2021/05/26 06:25:32;;;;;;;15.50;8.85;;;12.30;99.90;;;;;;6121390;23;20026;-82
2021/05/26 06:27:58;;;;;;;16.73;9.02;;;12.50;99.90;;;;;;6095279;23;20026;-83
2021/05/26 06:30:25;;;;;;;26.05;10.02;;;12.60;99.90;;;;;;6095308;23;20076;-83
2021/05/26 06:32:52;;;;;;;19.58;8.82;;;12.70;99.90;;;;;;6093158;23;20053;-82
2021/05/26 06:35:19;;;;;;;22.55;9.50;;;12.70;99.90;;;;;;6095650;23;20022;-83
2021/05/26 06:37:45;;;;;;;15.68;8.73;;;12.70;99.90;;;;;;6093512;23;20349;-83
2021/05/26 06:40:13;;;;;;;19.35;8.43;;;12.70;99.90;;;;;;6093911;23;20022;-83
2021/05/26 06:42:43;;;;;;;18.05;7.90;;;12.90;99.90;;;;;;6093729;23;20395;-82
2021/05/26 06:45:10;;;;;;;16.17;8.10;;;13.00;99.90;;;;;;6094788;23;20041;-82
2021/05/26 06:47:37;;;;;;;17.23;8.82;;;13.10;99.90;;;;;;6089911;23;20044;-82
2021/05/26 06:50:05;;;;;;;19.42;8.23;;;13.00;99.90;;;;;;6093681;23;20092;-82
2021/05/26 06:52:32;;;;;;;17.58;8.48;;;13.00;99.90;;;;;;6067556;23;20515;-82
2021/05/26 06:55:06;;;;;;;19.67;8.35;;;13.10;99.90;;;;;;6090681;23;20029;-81
2021/05/26 06:57:32;;;;;;;16.02;8.35;;;13.00;99.90;;;;;;6092632;23;20545;-82
2021/05/26 06:59:59;;;;;;;18.73;9.32;;;13.10;99.90;;;;;;6093567;23;20049;-83
2021/05/26 07:02:26;;;;;;;16.10;7.72;;;13.30;99.90;;;;;;6119446;23;20037;-82
2021/05/26 07:04:53;;;;;;;17.08;9.05;;;13.30;99.90;;;;;;6093431;23;20033;-82
2021/05/26 07:07:20;;;;;;;14.52;8.27;;;13.30;99.90;;;;;;6092738;23;20054;-82
2021/05/26 07:09:47;;;;;;;15.48;8.52;;;13.10;99.90;;;;;;6091399;23;20074;-82
2021/05/26 07:12:13;;;;;;;16.25;7.80;;;13.00;99.90;;;;;;6094677;23;20021;-83
2021/05/26 07:14:41;;;;;;;14.25;6.80;;;12.90;99.90;;;;;;6092072;23;20041;-82
2021/05/26 07:17:08;;;;;;;13.15;6.60;;;13.20;99.90;;;;;;6093436;23;20033;-82
2021/05/26 07:19:35;;;;;;;17.13;7.10;;;13.40;99.90;;;;;;6092828;23;20077;-83
2021/05/26 07:22:05;;;;;;;11.93;7.45;;;13.60;99.90;;;;;;6093367;23;20017;-80
2021/05/26 07:24:32;;;;;;;16.23;7.93;;;13.80;99.90;;;;;;6091655;23;20076;-82
2021/05/26 07:26:59;;;;;;;17.02;7.93;;;13.90;99.90;;;;;;6093491;23;20338;-81
2021/05/26 07:29:26;;;;;;;17.75;7.55;;;13.90;99.90;;;;;;6092053;23;20040;-82
2021/05/26 07:31:52;;;;;;;10.68;7.03;;;14.00;99.90;;;;;;6093640;23;20041;-82
2021/05/26 07:34:19;;;;;;;15.80;6.78;;;14.10;99.90;;;;;;6092123;23;20516;-82
2021/05/26 07:36:46;;;;;;;15.45;6.90;;;14.10;99.90;;;;;;6095234;23;20045;-82
2021/05/26 07:39:13;;;;;;;13.05;6.55;;;14.10;99.90;;;;;;6092663;23;20782;-82
2021/05/26 07:41:40;;;;;;;14.88;6.90;;;14.10;99.90;;;;;;6095237;23;20347;-82
2021/05/26 07:44:08;;;;;;;16.95;6.60;;;14.20;99.90;;;;;;6092088;23;20124;-82
2021/05/26 07:46:34;;;;;;;15.30;7.63;;;14.00;99.90;;;;;;6093909;23;20523;-82
2021/05/26 07:49:02;;;;;;;17.05;8.15;;;13.80;99.90;;;;;;6094272;23;20052;-84
2021/05/26 07:51:30;;;;;;;17.98;8.43;;;13.50;99.90;;;;;;6094655;23;20021;-83
2021/05/26 07:53:57;;;;;;;15.35;9.13;;;13.20;99.90;;;;;;6094721;23;20115;-84
2021/05/26 07:56:24;;;;;;;13.60;7.97;;;12.90;99.90;;;;;;6094959;23;20041;-83
2021/05/26 07:58:51;;;;;;;15.60;9.18;;;12.80;99.90;;;;;;6094558;23;20044;-83
2021/05/26 08:01:18;;;;;;;18.20;9.60;;;12.60;99.90;;;;;;6094940;23;20009;-83
2021/05/26 08:03:45;;;;;;;18.13;9.48;;;12.50;99.90;;;;;;6094599;23;20093;-82
2021/05/26 08:06:12;;;;;;;19.40;9.73;;;12.50;99.90;;;;;;6092648;23;20026;-82
2021/05/26 08:08:40;;;;;;;8.23;5.72;;;12.40;99.90;;;;;;6092600;23;20032;-83
2021/05/26 08:11:07;;;;;;;11.60;5.75;;;12.40;99.90;;;;;;6092929;23;20045;-83
2021/05/26 08:13:34;;;;;;;10.60;6.10;;;12.40;99.90;;;;;;6092776;23;20109;-82
2021/05/26 08:16:02;;;;;;;7.53;6.18;;;12.30;99.90;;;;;;6124830;23;20026;-80
2021/05/26 08:18:28;;;;;;;13.60;6.57;;;12.30;99.90;;;;;;6119028;23;20026;-80
2021/05/26 08:20:55;;;;;;;13.80;6.28;;;12.40;99.90;;;;;;6120470;23;20033;-80
2021/05/26 08:23:23;;;;;;;5.28;4.40;;;12.80;99.90;;;;;;6122377;23;20038;-81
2021/05/26 08:25:49;;;;;;;7.55;3.80;;;13.10;99.90;;;;;;6143599;23;20540;-80
2021/05/26 08:28:17;;;;;;;5.13;3.00;;;13.40;99.90;;;;;;6146096;23;20101;-80
2021/05/26 08:30:45;;;;;;;6.47;3.17;;;13.80;99.90;;;;;;6143810;23;20022;-81
2021/05/26 08:33:12;;;;;;;6.18;2.85;;;14.10;99.90;;;;;;6145456;23;20032;-80
2021/05/26 08:35:39;;;;;;;5.68;2.90;;;14.40;99.90;;;;;;6144126;23;20019;-81
2021/05/26 08:38:06;;;;;;;5.47;2.00;;;14.50;99.90;;;;;;6144915;23;20097;-80
2021/05/26 08:40:33;;;;;;;2.78;1.73;;;14.50;99.90;;;;;;6114940;23;20767;-81
2021/05/26 08:43:01;;;;;;;2.83;1.63;;;14.40;99.90;;;;;;6090139;23;20525;-80
2021/05/26 08:45:28;;;;;;;3.20;1.77;;;14.30;99.90;;;;;;6113373;23;20078;-80
2021/05/26 08:47:59;;;;;;;7.22;1.88;;;14.30;99.90;;;;;;6092646;23;20038;-80
2021/05/26 08:50:26;;;;;;;5.72;1.60;;;14.50;99.90;;;;;;6114618;23;20101;-80
2021/05/26 08:52:52;;;;;;;3.35;1.63;;;14.40;99.90;;;;;;6115266;23;20026;-80
2021/05/26 08:55:19;;;;;;;3.42;1.60;;;14.30;99.90;;;;;;6114208;23;20630;-79
2021/05/26 08:57:46;;;;;;;2.42;1.38;;;14.50;99.90;;;;;;6113456;23;20041;-80
2021/05/26 09:00:13;;;;;;;2.67;1.50;;;14.70;99.90;;;;;;6114170;23;20050;-80
2021/05/26 09:02:40;;;;;;;1.33;1.20;;;15.00;99.90;;;;;;6103198;23;20098;-80
2021/05/26 09:05:29;;;;;;;3.50;1.42;;;15.20;99.90;;;;;;6113411;23;20026;-82
2021/05/26 09:07:56;;;;;;;5.07;1.73;;;15.40;99.90;;;;;;6089847;23;20018;-80
2021/05/26 09:10:23;;;;;;;3.65;2.10;;;15.70;99.90;;;;;;6113887;23;20026;-79
2021/05/26 09:12:53;;;;;;;1.90;1.40;;;16.20;99.90;;;;;;6102628;23;20048;-80
2021/05/26 09:15:21;;;;;;;4.68;1.45;;;16.60;99.90;;;;;;6092996;23;20455;-80
2021/05/26 09:17:51;;;;;;;2.50;1.35;;;16.70;99.90;;;;;;6100635;23;1028283;-80
2021/05/26 09:20:26;;;;;;;3.65;1.10;;;16.50;99.90;;;;;;6119703;23;20022;-80
2021/05/26 09:23:17;;;;;;;1.50;1.10;;;16.20;99.90;;;;;;6119285;23;20128;-79
2021/05/26 09:25:44;;;;;;;1.10;0.50;;;16.00;99.90;;;;;;6121309;23;20596;-79
2021/05/26 09:28:23;;;;;;;1.35;0.52;;;15.90;99.90;;;;;;6119380;23;20884;-80
2021/05/26 09:30:56;;;;;;;3.60;0.65;;;15.80;99.90;;;;;;6148125;23;20048;-79
2021/05/26 09:33:27;;;;;;;0.83;0.73;;;16.00;99.90;;;;;;6172720;23;20052;-80
2021/05/26 09:36:11;;;;;;;2.05;1.00;;;16.30;99.90;;;;;;6172687;23;20108;-80
2021/05/26 09:38:47;;;;;;;0.75;0.70;;;16.60;99.90;;;;;;6147730;23;20441;-80
2021/05/26 09:41:15;;;;;;;1.75;1.05;;;16.70;99.90;;;;;;6172862;23;20711;-80
2021/05/26 09:43:45;;;;;;;1.05;0.90;;;16.60;99.90;;;;;;6149254;23;20060;-80
2021/05/26 09:46:38;;;;;;;3.38;1.08;;;16.70;99.90;;;;;;6148569;23;20052;-80
2021/05/26 09:49:15;;;;;;;5.47;1.10;;;16.80;99.90;;;;;;6148296;23;20816;-80
2021/05/26 09:51:55;;;;;;;1.92;0.73;;;16.60;99.90;;;;;;6150417;23;20045;-80
2021/05/26 09:54:26;;;;;;;3.00;0.82;;;16.60;99.90;;;;;;6150548;23;20022;-80
2021/05/26 09:56:54;;;;;;;2.78;0.70;;;16.60;99.90;;;;;;6145594;23;20100;-80
2021/05/26 09:59:22;;;;;;;2.72;0.80;;;16.50;99.90;;;;;;6149418;23;20401;-80
2021/05/26 10:01:54;;;;;;;1.73;0.90;;;16.30;99.90;;;;;;6150094;23;20548;-80
2021/05/26 10:04:22;;;;;;;2.85;0.88;;;16.10;99.90;;;;;;6147677;23;20026;-80
2021/05/26 10:06:52;;;;;;;1.60;0.70;;;16.00;99.90;;;;;;6148742;23;20040;-80
2021/05/26 10:09:21;;;;;;;0.90;0.52;;;16.20;99.90;;;;;;6150732;23;20045;-80
2021/05/26 10:11:52;;;;;;;0.50;0.50;;;16.50;99.90;;;;;;6173686;23;20053;-80
2021/05/26 10:14:21;;;;;;;0.45;0.40;;;16.30;99.90;;;;;;6139552;23;20017;-80
2021/05/26 10:16:52;;;;;;;0.60;0.60;;;16.00;99.90;;;;;;6158208;23;20034;-80
2021/05/26 10:19:19;;;;;;;3.25;0.70;;;15.80;99.90;;;;;;6147585;23;20029;-80
2021/05/26 10:21:48;;;;;;;1.52;0.38;;;15.60;99.90;;;;;;6150345;23;20021;-80
2021/05/26 10:24:19;;;;;;;1.45;0.40;;;15.60;99.90;;;;;;6147686;23;20025;-80
2021/05/26 10:27:01;;;;;;;0.60;0.30;;;15.60;99.90;;;;;;6146268;23;20025;-80
2021/05/26 10:29:28;;;;;;;1.92;0.60;;;16.00;99.90;;;;;;6150319;23;20721;-80
2021/05/26 10:31:55;;;;;;;0.98;0.52;;;16.60;99.90;;;;;;6149654;23;20029;-80
2021/05/26 10:34:42;;;;;;;0.93;0.32;;;17.00;99.90;;;;;;6148309;23;20687;-80
2021/05/26 10:37:10;;;;;;;1.95;0.40;;;17.30;99.90;;;;;;6148304;23;20041;-80
2021/05/26 10:39:37;;;;;;;1.17;0.40;;;17.40;99.90;;;;;;6150456;23;20028;-79
2021/05/26 10:42:05;;;;;;;2.38;0.40;;;17.60;99.90;;;;;;6148439;23;20022;-79
2021/05/26 10:44:59;;;;;;;1.02;0.60;;;17.60;99.90;;;;;;6148847;23;20128;-79
2021/05/26 10:47:38;;;;;;;1.77;0.40;;;17.80;99.90;;;;;;6158710;23;20087;-81
2021/05/26 10:50:06;;;;;;;1.45;0.65;;;17.80;99.90;;;;;;6170946;23;20101;-79
2021/05/26 10:52:54;;;;;;;2.63;0.40;;;17.50;99.80;;;;;;6147186;23;20084;-79
2021/05/26 10:55:43;;;;;;;0.85;0.30;;;17.40;99.90;;;;;;6171084;23;20412;-79
2021/05/26 10:58:19;;;;;;;1.75;0.35;;;17.50;99.90;;;;;;6146428;23;20093;-80
2021/05/26 11:00:56;;;;;;;0.60;0.40;;;17.70;99.90;;;;;;6158077;23;20073;-80
2021/05/26 11:03:29;;;;;;;2.15;0.30;;;17.80;99.90;;;;;;6147088;23;20017;-80
2021/05/26 11:06:10;;;;;;;1.08;0.40;;;17.90;99.90;;;;;;6149395;23;20078;-79
2021/05/26 11:08:41;;;;;;;1.45;0.50;;;18.30;98.40;;;;;;6171438;23;20014;-79
2021/05/26 11:11:23;;;;;;;6.60;0.50;;;18.60;97.20;;;;;;6133916;23;20089;-80
2021/05/26 11:14:06;;;;;;;1.10;0.30;;;18.60;96.60;;;;;;6170951;23;20020;-80
2021/05/26 11:16:47;;;;;;;2.28;0.30;;;18.70;96.90;;;;;;6171869;23;20899;-80
2021/05/26 11:19:20;;;;;;;0.32;0.32;;;19.20;98.10;;;;;;6159866;23;20021;-80
2021/05/26 11:21:57;;;;;;;0.45;0.30;;;19.40;95.60;;;;;;6158561;23;20026;-80
2021/05/26 11:24:26;;;;;;;1.58;0.60;;;19.10;93.40;;;;;;6172298;23;20506;-80
2021/05/26 11:26:53;;;;;;;1.40;0.60;;;18.80;94.90;;;;;;6146510;23;20022;-79
2021/05/26 11:29:26;;;;;;;1.10;0.50;;;18.90;93.00;;;;;;6149383;23;20025;-80
2021/05/26 11:32:24;;;;;;;2.47;0.70;;;18.70;92.70;;;;;;6159928;23;20481;-80
2021/05/26 11:34:53;;;;;;;1.27;0.50;;;18.70;92.40;;;;;;6118676;23;20203;-81
2021/05/26 11:37:33;;;;;;;2.38;0.60;;;18.60;93.00;;;;;;6173627;23;20679;-81
2021/05/26 11:40:02;;;;;;;3.15;0.60;;;18.20;91.80;;;;;;6173924;23;20018;-80
2021/05/26 11:42:30;;;;;;;0.63;0.50;;;17.90;92.70;;;;;;6147760;23;20025;-80
2021/05/26 11:45:08;;;;;;;0.90;0.50;;;17.90;93.90;;;;;;6151664;23;20025;-81
2021/05/26 11:47:37;;;;;;;0.63;0.50;;;18.10;92.30;;;;;;6172838;23;20040;-80
2021/05/26 11:50:12;;;;;;;4.35;0.63;;;17.90;93.00;;;;;;6147856;23;20017;-80
2021/05/26 11:52:41;;;;;;;2.03;0.65;;;17.70;92.30;;;;;;6173865;23;20032;-80
2021/05/26 11:55:09;;;;;;;2.00;0.90;;;17.50;93.80;;;;;;6148701;23;20045;-80
2021/05/26 11:57:37;;;;;;;5.00;0.90;;;17.50;94.40;;;;;;6148307;23;20095;-80
2021/05/26 12:00:10;;;;;;;1.63;0.80;;;17.40;94.00;;;;;;6148641;23;20021;-80
2021/05/26 12:02:54;;;;;;;2.15;0.88;;;17.10;94.30;;;;;;6172938;23;20045;-80
2021/05/26 12:05:38;;;;;;;3.20;0.73;;;17.50;98.10;;;;;;6171765;23;20105;-81
2021/05/26 12:08:21;;;;;;;1.83;1.13;;;18.80;93.00;;;;;;6173019;23;20021;-81
2021/05/26 12:10:55;;;;;;;4.13;1.27;;;19.60;92.60;;;;;;6148626;23;20032;-81
2021/05/26 12:13:24;;;;;;;2.78;0.98;;;20.50;90.90;;;;;;6171363;23;20249;-81
2021/05/26 12:15:52;;;;;;;1.60;0.77;;;21.00;90.00;;;;;;6150952;23;20025;-81
2021/05/26 12:18:20;;;;;;;3.63;1.50;;;21.60;84.80;;;;;;6150365;23;20040;-81
2021/05/26 12:20:49;;;;;;;2.65;0.85;;;21.70;81.60;;;;;;6145901;23;20031;-81
2021/05/26 12:23:31;;;;;;;2.22;0.70;;;22.40;79.20;;;;;;6124846;23;20060;-81
2021/05/26 12:25:58;;;;;;;1.52;0.80;;;22.90;71.30;;;;;;6149947;23;20056;-81
2021/05/26 12:28:28;;;;;;;2.35;1.17;;;23.50;70.30;;;;;;6152078;23;20029;-81
2021/05/26 12:30:56;;;;;;;2.47;1.27;;;23.80;67.80;;;;;;6127282;23;20108;-80
2021/05/26 12:33:26;;;;;;;6.38;1.48;;;23.80;66.40;;;;;;6150527;23;20029;-82
2021/05/26 12:36:04;;;;;;;4.07;1.10;;;23.90;64.70;;;;;;6149925;23;20033;-80
2021/05/26 12:38:40;;;;;;;2.75;1.10;;;23.20;63.50;;;;;;6172121;23;20334;-82
2021/05/26 12:41:36;;;;;;;4.10;1.10;;;22.50;65.30;;;;;;6164754;23;20037;-80
2021/05/26 12:44:09;;;;;;;2.97;1.17;;;22.40;66.40;;;;;;6136733;23;20438;-82
2021/05/26 12:46:43;;;;;;;2.77;1.27;;;22.80;66.30;;;;;;6148819;23;20020;-83
2021/05/26 12:49:46;;;;;;;2.78;1.45;;;23.10;64.70;;;;;;6172151;23;20045;-81
2021/05/26 12:52:27;;;;;;;3.35;1.35;;;22.70;64.10;;;;;;6088586;23;20831;-81
2021/05/26 12:54:54;;;;;;;3.38;1.48;;;21.90;63.90;;;;;;6151414;23;20033;-84